sensor_id;sensor_type;location;lat;lon;timestamp;pressure;altitude;pressure_sealevel;temperature;humidity
26531;BME280;14201;43.188;24.160;2023-04-07T00:00:57;99446.91;;;4.77;59.63
26531;BME280;14201;43.188;24.160;2023-04-07T00:03:23;99454.31;;;4.86;59.35
26531;BME280;14201;43.188;24.160;2023-04-07T00:05:48;99447.78;;;4.78;60.35
26531;BME280;14201;43.188;24.160;2023-04-07T00:08:14;99441.66;;;4.76;59.86
26531;BME280;14201;43.188;24.160;2023-04-07T00:10:40;99440.84;;;4.77;60.04
26531;BME280;14201;43.188;24.160;2023-04-07T00:13:05;99433.81;;;4.74;59.70
26531;BME280;14201;43.188;24.160;2023-04-07T00:15:31;99432.25;;;4.63;61.14
26531;BME280;14201;43.188;24.160;2023-04-07T00:17:56;99443.97;;;4.58;60.50
26531;BME280;14201;43.188;24.160;2023-04-07T00:20:22;99436.19;;;4.29;61.14
26531;BME280;14201;43.188;24.160;2023-04-07T00:22:48;99436.41;;;4.19;61.72
26531;BME280;14201;43.188;24.160;2023-04-07T00:25:13;99435.09;;;4.26;61.89
26531;BME280;14201;43.188;24.160;2023-04-07T00:27:39;99432.72;;;4.16;62.49
26531;BME280;14201;43.188;24.160;2023-04-07T00:30:05;99433.59;;;4.16;63.37
26531;BME280;14201;43.188;24.160;2023-04-07T00:32:31;99429.25;;;4.15;63.37
26531;BME280;14201;43.188;24.160;2023-04-07T00:34:57;99431.94;;;3.90;63.03
26531;BME280;14201;43.188;24.160;2023-04-07T00:37:23;99428.06;;;3.83;64.15
26531;BME280;14201;43.188;24.160;2023-04-07T00:39:50;99431.81;;;3.75;64.35
26531;BME280;14201;43.188;24.160;2023-04-07T00:42:17;99424.47;;;3.68;64.63
26531;BME280;14201;43.188;24.160;2023-04-07T00:44:42;99435.59;;;3.67;64.78
26531;BME280;14201;43.188;24.160;2023-04-07T00:47:08;99426.75;;;3.50;65.80
26531;BME280;14201;43.188;24.160;2023-04-07T00:49:36;99429.28;;;3.37;67.05
26531;BME280;14201;43.188;24.160;2023-04-07T00:52:01;99419.69;;;3.34;67.85
26531;BME280;14201;43.188;24.160;2023-04-07T00:54:29;99430.22;;;3.25;67.94
26531;BME280;14201;43.188;24.160;2023-04-07T00:56:55;99429.47;;;3.01;69.48
26531;BME280;14201;43.188;24.160;2023-04-07T00:59:21;99423.63;;;3.04;69.37
26531;BME280;14201;43.188;24.160;2023-04-07T01:01:58;99429.00;;;3.07;69.56
26531;BME280;14201;43.188;24.160;2023-04-07T01:04:36;99434.09;;;2.93;69.56
26531;BME280;14201;43.188;24.160;2023-04-07T01:07:43;99436.38;;;3.02;68.77
26531;BME280;14201;43.188;24.160;2023-04-07T01:10:18;99434.72;;;3.28;69.40
26531;BME280;14201;43.188;24.160;2023-04-07T01:13:01;99427.41;;;3.34;68.96
26531;BME280;14201;43.188;24.160;2023-04-07T01:15:29;99436.41;;;3.41;67.81
26531;BME280;14201;43.188;24.160;2023-04-07T01:18:05;99428.81;;;3.42;67.78
26531;BME280;14201;43.188;24.160;2023-04-07T01:20:33;99423.03;;;3.33;67.76
26531;BME280;14201;43.188;24.160;2023-04-07T01:23:03;99429.34;;;3.63;67.44
26531;BME280;14201;43.188;24.160;2023-04-07T01:30:59;99421.53;;;3.75;65.63
26531;BME280;14201;43.188;24.160;2023-04-07T01:33:27;99408.44;;;3.72;65.73
26531;BME280;14201;43.188;24.160;2023-04-07T01:35:58;99423.31;;;3.89;65.61
26531;BME280;14201;43.188;24.160;2023-04-07T01:38:26;99419.13;;;4.05;65.05
26531;BME280;14201;43.188;24.160;2023-04-07T01:40:54;99412.41;;;3.93;65.23
26531;BME280;14201;43.188;24.160;2023-04-07T01:43:21;99419.84;;;4.02;64.77
26531;BME280;14201;43.188;24.160;2023-04-07T01:45:48;99425.22;;;4.05;65.52
26531;BME280;14201;43.188;24.160;2023-04-07T01:48:15;99409.16;;;3.96;66.40
26531;BME280;14201;43.188;24.160;2023-04-07T01:50:42;99417.47;;;3.92;66.22
26531;BME280;14201;43.188;24.160;2023-04-07T01:53:08;99419.75;;;3.87;66.06
26531;BME280;14201;43.188;24.160;2023-04-07T01:55:35;99418.97;;;4.02;66.92
26531;BME280;14201;43.188;24.160;2023-04-07T01:58:05;99428.19;;;3.98;65.98
26531;BME280;14201;43.188;24.160;2023-04-07T02:00:31;99413.41;;;3.96;66.48
26531;BME280;14201;43.188;24.160;2023-04-07T02:03:06;99411.81;;;3.84;66.93
26531;BME280;14201;43.188;24.160;2023-04-07T02:05:34;99405.38;;;3.78;67.09
26531;BME280;14201;43.188;24.160;2023-04-07T02:08:04;99413.88;;;3.63;68.24
26531;BME280;14201;43.188;24.160;2023-04-07T02:10:32;99406.03;;;3.48;68.05
26531;BME280;14201;43.188;24.160;2023-04-07T02:13:00;99416.91;;;3.44;68.64
26531;BME280;14201;43.188;24.160;2023-04-07T02:15:29;99415.91;;;3.29;69.57
26531;BME280;14201;43.188;24.160;2023-04-07T02:17:57;99412.09;;;3.24;69.38
26531;BME280;14201;43.188;24.160;2023-04-07T02:20:24;99411.94;;;3.21;69.58
26531;BME280;14201;43.188;24.160;2023-04-07T02:22:49;99403.78;;;3.14;69.91
26531;BME280;14201;43.188;24.160;2023-04-07T02:25:25;99410.22;;;3.21;69.71
26531;BME280;14201;43.188;24.160;2023-04-07T02:27:51;99405.78;;;3.19;69.65
26531;BME280;14201;43.188;24.160;2023-04-07T02:30:17;99407.25;;;3.15;70.15
26531;BME280;14201;43.188;24.160;2023-04-07T02:32:43;99401.00;;;3.11;69.83
26531;BME280;14201;43.188;24.160;2023-04-07T02:35:09;99403.75;;;3.01;70.49
26531;BME280;14201;43.188;24.160;2023-04-07T02:37:35;99409.09;;;3.04;69.66
26531;BME280;14201;43.188;24.160;2023-04-07T02:40:02;99402.66;;;2.98;69.94
26531;BME280;14201;43.188;24.160;2023-04-07T02:42:28;99409.09;;;3.04;70.25
26531;BME280;14201;43.188;24.160;2023-04-07T02:44:53;99410.47;;;2.99;69.65
26531;BME280;14201;43.188;24.160;2023-04-07T02:47:19;99392.13;;;2.81;70.45
26531;BME280;14201;43.188;24.160;2023-04-07T02:49:44;99409.66;;;3.00;69.91
26531;BME280;14201;43.188;24.160;2023-04-07T02:52:11;99414.22;;;2.91;70.66
26531;BME280;14201;43.188;24.160;2023-04-07T02:54:36;99413.69;;;2.83;71.18
26531;BME280;14201;43.188;24.160;2023-04-07T02:57:02;99410.66;;;2.77;71.54
26531;BME280;14201;43.188;24.160;2023-04-07T02:59:28;99417.31;;;2.87;71.57
26531;BME280;14201;43.188;24.160;2023-04-07T03:01:53;99387.97;;;2.71;71.84
26531;BME280;14201;43.188;24.160;2023-04-07T03:04:20;99403.63;;;2.74;72.57
26531;BME280;14201;43.188;24.160;2023-04-07T03:06:46;99411.47;;;2.76;71.80
26531;BME280;14201;43.188;24.160;2023-04-07T03:09:11;99417.06;;;2.70;71.90
26531;BME280;14201;43.188;24.160;2023-04-07T03:11:37;99415.59;;;2.74;72.42
26531;BME280;14201;43.188;24.160;2023-04-07T03:14:03;99413.91;;;2.74;72.35
26531;BME280;14201;43.188;24.160;2023-04-07T03:16:28;99396.09;;;2.64;72.35
26531;BME280;14201;43.188;24.160;2023-04-07T03:18:54;99404.00;;;2.67;72.33
26531;BME280;14201;43.188;24.160;2023-04-07T03:21:20;99403.53;;;2.73;74.16
26531;BME280;14201;43.188;24.160;2023-04-07T03:23:45;99404.75;;;2.78;73.76
26531;BME280;14201;43.188;24.160;2023-04-07T03:26:11;99413.09;;;2.87;73.93
26531;BME280;14201;43.188;24.160;2023-04-07T03:28:37;99405.09;;;2.96;72.61
26531;BME280;14201;43.188;24.160;2023-04-07T03:31:02;99406.03;;;2.85;72.45
26531;BME280;14201;43.188;24.160;2023-04-07T03:33:28;99416.56;;;2.88;73.64
26531;BME280;14201;43.188;24.160;2023-04-07T03:35:53;99414.91;;;3.02;72.65
26531;BME280;14201;43.188;24.160;2023-04-07T03:38:19;99407.50;;;3.06;73.17
26531;BME280;14201;43.188;24.160;2023-04-07T03:40:45;99414.50;;;2.95;73.60
26531;BME280;14201;43.188;24.160;2023-04-07T03:43:11;99405.84;;;2.82;72.68
26531;BME280;14201;43.188;24.160;2023-04-07T03:45:40;99416.44;;;2.86;73.11
26531;BME280;14201;43.188;24.160;2023-04-07T03:48:06;99414.56;;;2.84;72.52
26531;BME280;14201;43.188;24.160;2023-04-07T03:50:39;99414.88;;;3.13;71.60
26531;BME280;14201;43.188;24.160;2023-04-07T03:53:05;99424.50;;;3.16;72.35
26531;BME280;14201;43.188;24.160;2023-04-07T03:55:32;99432.56;;;3.34;72.22
26531;BME280;14201;43.188;24.160;2023-04-07T03:57:58;99402.28;;;3.05;71.79
26531;BME280;14201;43.188;24.160;2023-04-07T04:00:23;99428.56;;;3.26;72.02
26531;BME280;14201;43.188;24.160;2023-04-07T04:02:49;99426.56;;;3.22;71.88
26531;BME280;14201;43.188;24.160;2023-04-07T04:05:15;99427.78;;;3.27;71.06
26531;BME280;14201;43.188;24.160;2023-04-07T04:07:41;99430.44;;;3.28;71.13
26531;BME280;14201;43.188;24.160;2023-04-07T04:10:07;99435.41;;;3.39;71.72
26531;BME280;14201;43.188;24.160;2023-04-07T04:12:32;99423.31;;;3.24;70.83
26531;BME280;14201;43.188;24.160;2023-04-07T04:14:58;99449.00;;;3.36;71.42
26531;BME280;14201;43.188;24.160;2023-04-07T04:17:24;99417.47;;;3.27;71.76
26531;BME280;14201;43.188;24.160;2023-04-07T04:19:50;99442.47;;;3.54;72.09
26531;BME280;14201;43.188;24.160;2023-04-07T04:22:16;99445.66;;;3.64;70.45
26531;BME280;14201;43.188;24.160;2023-04-07T04:24:42;99445.56;;;3.62;71.19
26531;BME280;14201;43.188;24.160;2023-04-07T04:27:08;99444.19;;;3.67;71.09
26531;BME280;14201;43.188;24.160;2023-04-07T04:29:33;99455.88;;;3.62;72.45
26531;BME280;14201;43.188;24.160;2023-04-07T04:31:59;99446.88;;;3.69;70.80
26531;BME280;14201;43.188;24.160;2023-04-07T04:34:24;99454.81;;;3.85;70.91
26531;BME280;14201;43.188;24.160;2023-04-07T04:36:50;99461.44;;;3.82;69.79
26531;BME280;14201;43.188;24.160;2023-04-07T04:39:16;99462.94;;;3.91;69.81
26531;BME280;14201;43.188;24.160;2023-04-07T04:41:43;99466.13;;;4.14;68.88
26531;BME280;14201;43.188;24.160;2023-04-07T04:44:08;99461.84;;;4.14;68.72
26531;BME280;14201;43.188;24.160;2023-04-07T04:46:34;99467.44;;;4.21;69.38
26531;BME280;14201;43.188;24.160;2023-04-07T04:48:59;99467.81;;;4.27;68.41
26531;BME280;14201;43.188;24.160;2023-04-07T04:51:25;99468.41;;;4.23;70.27
26531;BME280;14201;43.188;24.160;2023-04-07T04:53:51;99473.25;;;4.31;69.17
26531;BME280;14201;43.188;24.160;2023-04-07T04:56:17;99465.50;;;4.45;69.80
26531;BME280;14201;43.188;24.160;2023-04-07T04:58:42;99469.84;;;4.59;70.68
26531;BME280;14201;43.188;24.160;2023-04-07T05:01:11;99468.19;;;4.60;71.46
26531;BME280;14201;43.188;24.160;2023-04-07T05:03:37;99472.63;;;4.62;70.71
26531;BME280;14201;43.188;24.160;2023-04-07T05:06:02;99463.78;;;4.72;68.64
26531;BME280;14201;43.188;24.160;2023-04-07T05:08:28;99480.50;;;4.79;68.08
26531;BME280;14201;43.188;24.160;2023-04-07T05:10:54;99486.94;;;4.99;67.62
26531;BME280;14201;43.188;24.160;2023-04-07T05:13:20;99486.31;;;5.03;65.01
26531;BME280;14201;43.188;24.160;2023-04-07T05:15:45;99490.34;;;5.12;65.41
26531;BME280;14201;43.188;24.160;2023-04-07T05:18:11;99494.72;;;5.13;62.96
26531;BME280;14201;43.188;24.160;2023-04-07T05:20:37;99496.25;;;5.25;65.01
26531;BME280;14201;43.188;24.160;2023-04-07T05:23:03;99488.72;;;5.28;65.60
26531;BME280;14201;43.188;24.160;2023-04-07T05:25:29;99486.50;;;5.34;65.02
26531;BME280;14201;43.188;24.160;2023-04-07T05:27:57;99489.13;;;5.64;63.19
26531;BME280;14201;43.188;24.160;2023-04-07T05:30:24;99493.41;;;5.78;61.87
26531;BME280;14201;43.188;24.160;2023-04-07T05:32:49;99494.03;;;5.74;62.13
26531;BME280;14201;43.188;24.160;2023-04-07T05:35:16;99490.03;;;5.94;60.97
26531;BME280;14201;43.188;24.160;2023-04-07T05:37:41;99473.44;;;5.90;60.05
26531;BME280;14201;43.188;24.160;2023-04-07T05:40:07;99477.13;;;6.09;58.99
26531;BME280;14201;43.188;24.160;2023-04-07T05:42:33;99486.38;;;6.20;59.72
26531;BME280;14201;43.188;24.160;2023-04-07T05:44:58;99485.94;;;6.27;58.94
26531;BME280;14201;43.188;24.160;2023-04-07T05:47:24;99493.34;;;6.36;58.28
26531;BME280;14201;43.188;24.160;2023-04-07T05:49:50;99485.38;;;6.48;57.84
26531;BME280;14201;43.188;24.160;2023-04-07T05:52:15;99492.03;;;6.59;56.89
26531;BME280;14201;43.188;24.160;2023-04-07T05:54:41;99492.09;;;6.61;55.88
26531;BME280;14201;43.188;24.160;2023-04-07T05:57:07;99486.13;;;6.62;55.18
26531;BME280;14201;43.188;24.160;2023-04-07T05:59:33;99497.06;;;6.73;55.69
26531;BME280;14201;43.188;24.160;2023-04-07T06:01:59;99494.97;;;6.65;56.38
26531;BME280;14201;43.188;24.160;2023-04-07T06:04:25;99489.78;;;6.65;56.50
26531;BME280;14201;43.188;24.160;2023-04-07T06:06:51;99491.88;;;6.73;56.47
26531;BME280;14201;43.188;24.160;2023-04-07T06:09:22;99489.56;;;6.77;55.38
26531;BME280;14201;43.188;24.160;2023-04-07T06:11:47;99490.22;;;6.89;56.06
26531;BME280;14201;43.188;24.160;2023-04-07T06:14:13;99492.91;;;7.07;56.47
26531;BME280;14201;43.188;24.160;2023-04-07T06:16:39;99501.16;;;7.17;54.83
26531;BME280;14201;43.188;24.160;2023-04-07T06:19:05;99491.06;;;7.38;54.50
26531;BME280;14201;43.188;24.160;2023-04-07T06:21:32;99487.19;;;7.29;56.04
26531;BME280;14201;43.188;24.160;2023-04-07T06:23:58;99503.44;;;7.43;54.80
26531;BME280;14201;43.188;24.160;2023-04-07T06:26:24;99490.66;;;7.46;55.53
26531;BME280;14201;43.188;24.160;2023-04-07T06:28:49;99491.53;;;7.47;54.53
26531;BME280;14201;43.188;24.160;2023-04-07T06:31:16;99498.13;;;7.75;54.62
26531;BME280;14201;43.188;24.160;2023-04-07T06:33:43;99502.75;;;7.80;53.09
26531;BME280;14201;43.188;24.160;2023-04-07T06:36:10;99493.53;;;7.69;52.89
26531;BME280;14201;43.188;24.160;2023-04-07T06:38:35;99495.13;;;7.83;51.91
26531;BME280;14201;43.188;24.160;2023-04-07T06:41:01;99501.28;;;7.85;52.41
26531;BME280;14201;43.188;24.160;2023-04-07T06:43:30;99500.03;;;7.95;51.29
26531;BME280;14201;43.188;24.160;2023-04-07T06:45:55;99505.75;;;8.06;50.48
26531;BME280;14201;43.188;24.160;2023-04-07T06:48:22;99506.19;;;7.97;50.77
26531;BME280;14201;43.188;24.160;2023-04-07T06:50:50;99506.28;;;7.99;51.10
26531;BME280;14201;43.188;24.160;2023-04-07T06:53:16;99507.28;;;8.19;51.18
26531;BME280;14201;43.188;24.160;2023-04-07T06:55:42;99498.69;;;8.38;51.00
26531;BME280;14201;43.188;24.160;2023-04-07T06:58:08;99509.94;;;8.38;49.89
26531;BME280;14201;43.188;24.160;2023-04-07T07:00:34;99507.59;;;8.43;50.91
26531;BME280;14201;43.188;24.160;2023-04-07T07:03:00;99511.38;;;8.67;50.00
26531;BME280;14201;43.188;24.160;2023-04-07T07:05:26;99514.63;;;8.81;50.22
26531;BME280;14201;43.188;24.160;2023-04-07T07:07:52;99515.75;;;8.86;49.65
26531;BME280;14201;43.188;24.160;2023-04-07T07:10:17;99515.19;;;9.12;50.11
26531;BME280;14201;43.188;24.160;2023-04-07T07:12:45;99516.13;;;9.14;49.28
26531;BME280;14201;43.188;24.160;2023-04-07T07:15:10;99518.81;;;8.97;46.79
26531;BME280;14201;43.188;24.160;2023-04-07T07:17:36;99528.50;;;8.82;48.22
26531;BME280;14201;43.188;24.160;2023-04-07T07:20:01;99520.50;;;8.77;46.52
26531;BME280;14201;43.188;24.160;2023-04-07T07:22:27;99530.13;;;8.80;47.66
26531;BME280;14201;43.188;24.160;2023-04-07T07:24:53;99533.59;;;8.98;48.31
26531;BME280;14201;43.188;24.160;2023-04-07T07:27:18;99529.19;;;9.15;48.47
26531;BME280;14201;43.188;24.160;2023-04-07T07:29:44;99536.84;;;9.32;46.98
26531;BME280;14201;43.188;24.160;2023-04-07T07:32:09;99541.94;;;9.29;46.96
26531;BME280;14201;43.188;24.160;2023-04-07T07:34:35;99547.41;;;9.35;45.93
26531;BME280;14201;43.188;24.160;2023-04-07T07:37:00;99551.66;;;9.15;47.05
26531;BME280;14201;43.188;24.160;2023-04-07T07:39:25;99549.38;;;9.21;45.77
26531;BME280;14201;43.188;24.160;2023-04-07T07:41:51;99551.31;;;9.25;47.48
26531;BME280;14201;43.188;24.160;2023-04-07T07:44:17;99550.06;;;9.36;46.85
26531;BME280;14201;43.188;24.160;2023-04-07T07:46:44;99546.81;;;9.40;46.25
26531;BME280;14201;43.188;24.160;2023-04-07T07:49:09;99549.59;;;9.45;47.44
26531;BME280;14201;43.188;24.160;2023-04-07T07:51:36;99547.84;;;9.63;48.19
26531;BME280;14201;43.188;24.160;2023-04-07T07:54:02;99560.94;;;9.86;47.40
26531;BME280;14201;43.188;24.160;2023-04-07T07:56:28;99550.56;;;10.07;47.02
26531;BME280;14201;43.188;24.160;2023-04-07T07:58:53;99547.53;;;9.77;45.16
26531;BME280;14201;43.188;24.160;2023-04-07T08:01:19;99556.06;;;9.94;47.53
26531;BME280;14201;43.188;24.160;2023-04-07T08:03:45;99560.19;;;10.08;46.40
26531;BME280;14201;43.188;24.160;2023-04-07T08:06:11;99565.75;;;10.17;47.29
26531;BME280;14201;43.188;24.160;2023-04-07T08:08:37;99571.41;;;10.07;47.78
26531;BME280;14201;43.188;24.160;2023-04-07T08:11:03;99563.69;;;10.30;45.83
26531;BME280;14201;43.188;24.160;2023-04-07T08:13:28;99573.13;;;10.47;47.24
26531;BME280;14201;43.188;24.160;2023-04-07T08:15:54;99573.22;;;10.50;45.90
26531;BME280;14201;43.188;24.160;2023-04-07T08:18:20;99576.22;;;10.59;46.50
26531;BME280;14201;43.188;24.160;2023-04-07T08:20:45;99571.94;;;10.82;44.81
26531;BME280;14201;43.188;24.160;2023-04-07T08:23:11;99571.19;;;10.64;44.98
26531;BME280;14201;43.188;24.160;2023-04-07T08:25:37;99580.91;;;10.68;46.72
26531;BME280;14201;43.188;24.160;2023-04-07T08:28:05;99562.03;;;10.74;45.92
26531;BME280;14201;43.188;24.160;2023-04-07T08:30:31;99569.84;;;10.74;46.33
26531;BME280;14201;43.188;24.160;2023-04-07T08:32:57;99581.00;;;10.92;45.26
26531;BME280;14201;43.188;24.160;2023-04-07T08:35:22;99575.94;;;10.95;45.54
26531;BME280;14201;43.188;24.160;2023-04-07T08:37:48;99565.69;;;11.00;45.30
26531;BME280;14201;43.188;24.160;2023-04-07T08:40:14;99584.16;;;11.06;46.24
26531;BME280;14201;43.188;24.160;2023-04-07T08:42:47;99579.53;;;10.99;45.60
26531;BME280;14201;43.188;24.160;2023-04-07T08:45:16;99585.88;;;11.06;46.44
26531;BME280;14201;43.188;24.160;2023-04-07T08:47:45;99589.31;;;11.04;45.29
26531;BME280;14201;43.188;24.160;2023-04-07T08:50:15;99585.44;;;10.95;46.24
26531;BME280;14201;43.188;24.160;2023-04-07T08:52:50;99589.22;;;10.80;46.60
26531;BME280;14201;43.188;24.160;2023-04-07T08:55:17;99594.38;;;10.79;46.92
26531;BME280;14201;43.188;24.160;2023-04-07T08:57:44;99591.06;;;10.83;46.46
26531;BME280;14201;43.188;24.160;2023-04-07T09:00:11;99588.84;;;10.92;47.34
26531;BME280;14201;43.188;24.160;2023-04-07T09:02:39;99587.88;;;10.90;46.74
26531;BME280;14201;43.188;24.160;2023-04-07T09:05:07;99598.53;;;10.96;47.17
26531;BME280;14201;43.188;24.160;2023-04-07T09:07:36;99595.84;;;11.16;48.40
26531;BME280;14201;43.188;24.160;2023-04-07T09:10:03;99597.16;;;11.27;47.05
26531;BME280;14201;43.188;24.160;2023-04-07T09:12:30;99602.88;;;11.41;46.78
26531;BME280;14201;43.188;24.160;2023-04-07T09:14:56;99600.03;;;11.57;46.69
26531;BME280;14201;43.188;24.160;2023-04-07T09:17:24;99606.16;;;11.82;44.72
26531;BME280;14201;43.188;24.160;2023-04-07T09:19:52;99601.88;;;11.84;43.25
26531;BME280;14201;43.188;24.160;2023-04-07T09:22:37;99597.28;;;11.77;45.19
26531;BME280;14201;43.188;24.160;2023-04-07T09:30:25;99582.38;;;12.23;44.62
26531;BME280;14201;43.188;24.160;2023-04-07T09:32:52;99591.84;;;12.19;46.86
26531;BME280;14201;43.188;24.160;2023-04-07T09:35:17;99596.44;;;12.52;47.10
26531;BME280;14201;43.188;24.160;2023-04-07T09:37:43;99591.41;;;13.12;44.35
26531;BME280;14201;43.188;24.160;2023-04-07T09:40:09;99582.09;;;13.20;43.06
26531;BME280;14201;43.188;24.160;2023-04-07T09:42:44;99603.66;;;12.59;42.89
26531;BME280;14201;43.188;24.160;2023-04-07T09:45:10;99593.09;;;12.56;42.96
26531;BME280;14201;43.188;24.160;2023-04-07T09:47:36;99584.31;;;12.54;44.05
26531;BME280;14201;43.188;24.160;2023-04-07T09:50:02;99594.75;;;12.54;42.44
26531;BME280;14201;43.188;24.160;2023-04-07T09:52:51;99588.78;;;12.56;44.86
26531;BME280;14201;43.188;24.160;2023-04-07T09:55:20;99594.50;;;12.72;44.34
26531;BME280;14201;43.188;24.160;2023-04-07T09:57:48;99587.13;;;12.60;41.09
26531;BME280;14201;43.188;24.160;2023-04-07T10:00:15;99590.41;;;12.80;43.91
26531;BME280;14201;43.188;24.160;2023-04-07T10:02:41;99592.63;;;12.42;42.44
26531;BME280;14201;43.188;24.160;2023-04-07T10:05:08;99599.53;;;12.40;43.68
26531;BME280;14201;43.188;24.160;2023-04-07T10:07:34;99597.78;;;12.40;43.49
26531;BME280;14201;43.188;24.160;2023-04-07T10:10:00;99600.66;;;12.48;43.56
26531;BME280;14201;43.188;24.160;2023-04-07T10:12:26;99608.00;;;12.58;43.29
26531;BME280;14201;43.188;24.160;2023-04-07T10:14:52;99598.69;;;12.67;43.54
26531;BME280;14201;43.188;24.160;2023-04-07T10:17:19;99599.81;;;12.75;43.74
26531;BME280;14201;43.188;24.160;2023-04-07T10:19:47;99604.38;;;12.80;44.16
26531;BME280;14201;43.188;24.160;2023-04-07T10:22:14;99597.88;;;12.96;43.82
26531;BME280;14201;43.188;24.160;2023-04-07T10:24:59;99596.25;;;12.46;44.39
26531;BME280;14201;43.188;24.160;2023-04-07T10:27:33;99595.34;;;12.45;44.63
26531;BME280;14201;43.188;24.160;2023-04-07T10:30:00;99582.38;;;12.48;44.91
26531;BME280;14201;43.188;24.160;2023-04-07T10:32:28;99592.84;;;12.74;45.14
26531;BME280;14201;43.188;24.160;2023-04-07T10:34:55;99591.03;;;13.00;44.13
26531;BME280;14201;43.188;24.160;2023-04-07T10:37:23;99592.59;;;13.22;43.63
26531;BME280;14201;43.188;24.160;2023-04-07T10:40:26;99600.00;;;13.35;42.40
26531;BME280;14201;43.188;24.160;2023-04-07T10:45:04;99596.38;;;13.30;43.99
26531;BME280;14201;43.188;24.160;2023-04-07T10:47:30;99596.13;;;12.95;42.48
26531;BME280;14201;43.188;24.160;2023-04-07T10:50:15;99597.88;;;12.69;44.24
26531;BME280;14201;43.188;24.160;2023-04-07T10:52:42;99590.72;;;12.64;43.17
26531;BME280;14201;43.188;24.160;2023-04-07T10:58:16;99603.19;;;11.95;44.12
26531;BME280;14201;43.188;24.160;2023-04-07T11:01:16;99608.03;;;11.86;44.06
26531;BME280;14201;43.188;24.160;2023-04-07T11:06:12;99619.16;;;12.29;46.02
26531;BME280;14201;43.188;24.160;2023-04-07T11:08:46;99614.00;;;12.56;46.19
26531;BME280;14201;43.188;24.160;2023-04-07T11:11:14;99613.94;;;12.80;45.40
26531;BME280;14201;43.188;24.160;2023-04-07T11:13:43;99612.56;;;12.91;46.21
26531;BME280;14201;43.188;24.160;2023-04-07T11:16:10;99606.03;;;13.06;44.86
26531;BME280;14201;43.188;24.160;2023-04-07T11:18:37;99607.50;;;13.25;44.70
26531;BME280;14201;43.188;24.160;2023-04-07T11:21:04;99606.91;;;13.33;43.29
26531;BME280;14201;43.188;24.160;2023-04-07T11:23:41;99609.19;;;13.50;43.91
26531;BME280;14201;43.188;24.160;2023-04-07T11:26:08;99606.41;;;13.45;44.55
26531;BME280;14201;43.188;24.160;2023-04-07T11:28:43;99606.41;;;13.45;43.42
26531;BME280;14201;43.188;24.160;2023-04-07T11:31:10;99608.75;;;13.36;42.89
26531;BME280;14201;43.188;24.160;2023-04-07T11:33:36;99615.09;;;13.44;43.47
26531;BME280;14201;43.188;24.160;2023-04-07T11:36:04;99613.31;;;13.42;42.94
26531;BME280;14201;43.188;24.160;2023-04-07T11:38:37;99623.09;;;13.49;42.63
26531;BME280;14201;43.188;24.160;2023-04-07T11:41:13;99616.97;;;13.48;41.54
26531;BME280;14201;43.188;24.160;2023-04-07T11:43:39;99619.53;;;13.47;41.21
26531;BME280;14201;43.188;24.160;2023-04-07T11:46:16;99624.22;;;13.01;40.03
26531;BME280;14201;43.188;24.160;2023-04-07T11:48:44;99610.06;;;12.69;41.33
26531;BME280;14201;43.188;24.160;2023-04-07T11:51:16;99614.78;;;12.53;40.37
26531;BME280;14201;43.188;24.160;2023-04-07T11:53:41;99610.78;;;12.90;41.74
26531;BME280;14201;43.188;24.160;2023-04-07T11:56:12;99613.75;;;13.01;41.71
26531;BME280;14201;43.188;24.160;2023-04-07T11:58:48;99616.81;;;12.88;41.55
26531;BME280;14201;43.188;24.160;2023-04-07T12:01:14;99610.47;;;12.81;41.69
26531;BME280;14201;43.188;24.160;2023-04-07T12:04:01;99603.88;;;12.92;40.56
26531;BME280;14201;43.188;24.160;2023-04-07T12:06:30;99611.56;;;13.15;42.27
26531;BME280;14201;43.188;24.160;2023-04-07T12:09:00;99623.97;;;13.22;43.98
26531;BME280;14201;43.188;24.160;2023-04-07T12:11:26;99615.56;;;13.31;44.13
26531;BME280;14201;43.188;24.160;2023-04-07T12:13:52;99620.97;;;13.37;41.92
26531;BME280;14201;43.188;24.160;2023-04-07T12:16:19;99617.56;;;13.39;40.13
26531;BME280;14201;43.188;24.160;2023-04-07T12:18:46;99614.00;;;13.10;40.69
26531;BME280;14201;43.188;24.160;2023-04-07T12:21:11;99611.75;;;12.67;40.61
26531;BME280;14201;43.188;24.160;2023-04-07T12:23:37;99618.28;;;12.79;42.59
26531;BME280;14201;43.188;24.160;2023-04-07T12:26:03;99623.47;;;13.05;41.48
26531;BME280;14201;43.188;24.160;2023-04-07T12:28:29;99622.44;;;13.29;41.30
26531;BME280;14201;43.188;24.160;2023-04-07T12:30:54;99625.22;;;13.33;39.01
26531;BME280;14201;43.188;24.160;2023-04-07T12:33:20;99611.84;;;13.24;40.58
26531;BME280;14201;43.188;24.160;2023-04-07T12:35:46;99618.13;;;13.02;40.29
26531;BME280;14201;43.188;24.160;2023-04-07T12:38:12;99621.84;;;13.09;40.16
26531;BME280;14201;43.188;24.160;2023-04-07T12:40:38;99619.38;;;12.60;40.85
26531;BME280;14201;43.188;24.160;2023-04-07T12:43:04;99631.38;;;12.81;41.10
26531;BME280;14201;43.188;24.160;2023-04-07T12:45:30;99623.41;;;13.04;39.74
26531;BME280;14201;43.188;24.160;2023-04-07T12:47:57;99630.50;;;13.08;41.45
26531;BME280;14201;43.188;24.160;2023-04-07T12:50:23;99635.53;;;13.29;40.97
26531;BME280;14201;43.188;24.160;2023-04-07T12:52:50;99632.78;;;13.51;40.80
26531;BME280;14201;43.188;24.160;2023-04-07T12:55:16;99622.91;;;13.43;39.38
26531;BME280;14201;43.188;24.160;2023-04-07T12:57:42;99645.63;;;13.44;40.45
26531;BME280;14201;43.188;24.160;2023-04-07T13:00:09;99648.13;;;13.41;40.66
26531;BME280;14201;43.188;24.160;2023-04-07T13:02:35;99656.56;;;13.05;46.18
26531;BME280;14201;43.188;24.160;2023-04-07T13:05:03;99657.50;;;12.81;46.71
26531;BME280;14201;43.188;24.160;2023-04-07T13:07:30;99650.75;;;12.60;47.31
26531;BME280;14201;43.188;24.160;2023-04-07T13:09:55;99644.25;;;12.49;48.95
26531;BME280;14201;43.188;24.160;2023-04-07T13:12:22;99661.19;;;12.60;49.16
26531;BME280;14201;43.188;24.160;2023-04-07T13:14:47;99655.19;;;12.63;48.65